sensor_id;sensor_type;location;lat;lon;timestamp;temperature;humidity
85509;DHT22;75919;48.506;8.946;2024-01-27T06:01:19;-0.90;99.90
85509;DHT22;75919;48.506;8.946;2024-01-27T06:03:45;-0.90;99.90
85509;DHT22;75919;48.506;8.946;2024-01-27T06:06:11;-0.70;99.90
85509;DHT22;75919;48.506;8.946;2024-01-27T06:08:36;-0.50;99.90
85509;DHT22;75919;48.506;8.946;2024-01-27T06:11:02;-0.90;99.90
85509;DHT22;75919;48.506;8.946;2024-01-27T06:13:31;-0.90;99.90
85509;DHT22;75919;48.506;8.946;2024-01-27T06:15:58;-1.00;99.90
85509;DHT22;75919;48.506;8.946;2024-01-27T06:18:24;-0.90;99.90
85509;DHT22;75919;48.506;8.946;2024-01-27T06:20:50;-1.00;99.90
85509;DHT22;75919;48.506;8.946;2024-01-27T06:23:15;-1.10;99.90
85509;DHT22;75919;48.506;8.946;2024-01-27T06:25:42;-1.10;99.90
85509;DHT22;75919;48.506;8.946;2024-01-27T06:28:08;-1.20;99.90
85509;DHT22;75919;48.506;8.946;2024-01-27T06:30:33;-1.20;99.90
85509;DHT22;75919;48.506;8.946;2024-01-27T06:32:59;-1.30;99.90
85509;DHT22;75919;48.506;8.946;2024-01-27T06:35:24;-1.20;99.90
85509;DHT22;75919;48.506;8.946;2024-01-27T06:37:50;-1.20;99.90
85509;DHT22;75919;48.506;8.946;2024-01-27T06:40:16;-1.20;99.90
85509;DHT22;75919;48.506;8.946;2024-01-27T06:42:41;-1.20;99.90
85509;DHT22;75919;48.506;8.946;2024-01-27T06:45:07;-1.30;99.90
85509;DHT22;75919;48.506;8.946;2024-01-27T06:47:33;-1.50;99.90
85509;DHT22;75919;48.506;8.946;2024-01-27T06:49:58;-1.60;99.90
85509;DHT22;75919;48.506;8.946;2024-01-27T06:52:24;-1.60;99.90
85509;DHT22;75919;48.506;8.946;2024-01-27T06:54:50;-1.70;99.90
85509;DHT22;75919;48.506;8.946;2024-01-27T06:57:22;-1.70;99.90
85509;DHT22;75919;48.506;8.946;2024-01-27T06:59:50;-1.70;99.90
85509;DHT22;75919;48.506;8.946;2024-01-27T07:02:27;-1.70;99.90
85509;DHT22;75919;48.506;8.946;2024-01-27T07:04:54;-1.80;99.90
85509;DHT22;75919;48.506;8.946;2024-01-27T07:07:25;-1.80;99.90
85509;DHT22;75919;48.506;8.946;2024-01-27T07:09:51;-1.80;99.90
85509;DHT22;75919;48.506;8.946;2024-01-27T07:12:17;-1.70;99.90
85509;DHT22;75919;48.506;8.946;2024-01-27T07:14:43;-1.60;99.90
85509;DHT22;75919;48.506;8.946;2024-01-27T07:17:08;-1.60;99.90
85509;DHT22;75919;48.506;8.946;2024-01-27T07:19:34;-1.50;99.90
85509;DHT22;75919;48.506;8.946;2024-01-27T07:22:00;-1.50;99.90
85509;DHT22;75919;48.506;8.946;2024-01-27T07:24:26;-1.40;99.90
85509;DHT22;75919;48.506;8.946;2024-01-27T07:26:52;-1.60;99.90
85509;DHT22;75919;48.506;8.946;2024-01-27T07:29:17;-1.50;99.90
85509;DHT22;75919;48.506;8.946;2024-01-27T07:31:43;-1.40;99.90
85509;DHT22;75919;48.506;8.946;2024-01-27T07:34:08;-1.50;99.90
85509;DHT22;75919;48.506;8.946;2024-01-27T07:36:35;-1.50;99.90
85509;DHT22;75919;48.506;8.946;2024-01-27T07:39:00;-1.50;99.90
85509;DHT22;75919;48.506;8.946;2024-01-27T07:41:26;-1.40;99.90
85509;DHT22;75919;48.506;8.946;2024-01-27T07:43:53;-1.20;99.90
85509;DHT22;75919;48.506;8.946;2024-01-27T07:46:19;-1.20;99.90
85509;DHT22;75919;48.506;8.946;2024-01-27T07:48:48;-1.20;99.90
85509;DHT22;75919;48.506;8.946;2024-01-27T07:51:13;-1.10;99.90
85509;DHT22;75919;48.506;8.946;2024-01-27T07:53:39;-1.00;99.90
85509;DHT22;75919;48.506;8.946;2024-01-27T07:56:05;-1.10;99.90
85509;DHT22;75919;48.506;8.946;2024-01-27T07:58:31;-1.10;99.90
85509;DHT22;75919;48.506;8.946;2024-01-27T08:00:57;-1.00;99.90
85509;DHT22;75919;48.506;8.946;2024-01-27T08:03:23;-0.90;99.90
85509;DHT22;75919;48.506;8.946;2024-01-27T08:05:49;-0.80;99.90
85509;DHT22;75919;48.506;8.946;2024-01-27T08:08:14;-0.70;99.90
85509;DHT22;75919;48.506;8.946;2024-01-27T08:10:40;-0.40;99.90
85509;DHT22;75919;48.506;8.946;2024-01-27T08:13:06;-0.30;99.90
85509;DHT22;75919;48.506;8.946;2024-01-27T08:15:32;-0.60;99.90
85509;DHT22;75919;48.506;8.946;2024-01-27T08:17:58;-0.50;99.90
85509;DHT22;75919;48.506;8.946;2024-01-27T08:20:23;-0.10;99.90
85509;DHT22;75919;48.506;8.946;2024-01-27T08:22:49;-0.40;99.90
85509;DHT22;75919;48.506;8.946;2024-01-27T08:25:17;-0.10;99.90
85509;DHT22;75919;48.506;8.946;2024-01-27T08:27:43;-0.40;99.90
85509;DHT22;75919;48.506;8.946;2024-01-27T08:30:09;-0.40;99.90
85509;DHT22;75919;48.506;8.946;2024-01-27T08:32:35;-0.40;99.90
85509;DHT22;75919;48.506;8.946;2024-01-27T08:35:01;-0.40;99.90
85509;DHT22;75919;48.506;8.946;2024-01-27T08:37:27;-0.50;99.90
85509;DHT22;75919;48.506;8.946;2024-01-27T08:39:53;-0.30;99.90
85509;DHT22;75919;48.506;8.946;2024-01-27T08:42:18;0.00;99.90
85509;DHT22;75919;48.506;8.946;2024-01-27T08:44:44;-0.20;99.90
85509;DHT22;75919;48.506;8.946;2024-01-27T08:47:10;-0.20;99.90
85509;DHT22;75919;48.506;8.946;2024-01-27T08:49:35;0.10;99.90
85509;DHT22;75919;48.506;8.946;2024-01-27T08:52:01;0.40;99.90
85509;DHT22;75919;48.506;8.946;2024-01-27T08:54:27;0.10;99.90
85509;DHT22;75919;48.506;8.946;2024-01-27T08:56:52;0.10;99.90
85509;DHT22;75919;48.506;8.946;2024-01-27T08:59:18;0.10;99.90
85509;DHT22;75919;48.506;8.946;2024-01-27T09:01:44;0.20;99.90
85509;DHT22;75919;48.506;8.946;2024-01-27T09:04:09;0.10;99.90
85509;DHT22;75919;48.506;8.946;2024-01-27T09:06:35;0.20;99.90
85509;DHT22;75919;48.506;8.946;2024-01-27T09:09:01;0.20;99.90
85509;DHT22;75919;48.506;8.946;2024-01-27T09:11:27;0.20;99.90
85509;DHT22;75919;48.506;8.946;2024-01-27T09:13:55;0.20;99.90
85509;DHT22;75919;48.506;8.946;2024-01-27T09:16:21;0.20;99.90
85509;DHT22;75919;48.506;8.946;2024-01-27T09:18:47;0.20;99.90
85509;DHT22;75919;48.506;8.946;2024-01-27T09:21:15;0.30;99.90
85509;DHT22;75919;48.506;8.946;2024-01-27T09:23:46;0.20;99.90
85509;DHT22;75919;48.506;8.946;2024-01-27T09:26:12;0.40;99.90
85509;DHT22;75919;48.506;8.946;2024-01-27T09:28:39;0.40;99.90
85509;DHT22;75919;48.506;8.946;2024-01-27T09:31:10;0.50;99.90
85509;DHT22;75919;48.506;8.946;2024-01-27T09:33:36;0.60;99.90
85509;DHT22;75919;48.506;8.946;2024-01-27T09:36:02;0.70;99.90
85509;DHT22;75919;48.506;8.946;2024-01-27T09:38:29;0.60;99.90
85509;DHT22;75919;48.506;8.946;2024-01-27T09:40:55;0.60;99.90
85509;DHT22;75919;48.506;8.946;2024-01-27T09:43:21;1.00;99.90
85509;DHT22;75919;48.506;8.946;2024-01-27T09:45:48;0.80;99.90
85509;DHT22;75919;48.506;8.946;2024-01-27T09:48:13;0.70;99.90
85509;DHT22;75919;48.506;8.946;2024-01-27T09:50:41;0.90;99.90
85509;DHT22;75919;48.506;8.946;2024-01-27T09:53:07;1.00;99.90
85509;DHT22;75919;48.506;8.946;2024-01-27T09:55:34;0.90;99.90
85509;DHT22;75919;48.506;8.946;2024-01-27T09:58:00;1.00;99.90
85509;DHT22;75919;48.506;8.946;2024-01-27T10:00:27;1.00;99.90
85509;DHT22;75919;48.506;8.946;2024-01-27T10:02:54;0.80;99.90
85509;DHT22;75919;48.506;8.946;2024-01-27T10:05:20;1.00;99.90
85509;DHT22;75919;48.506;8.946;2024-01-27T10:07:47;1.10;99.90
85509;DHT22;75919;48.506;8.946;2024-01-27T10:10:12;1.10;99.90
85509;DHT22;75919;48.506;8.946;2024-01-27T10:12:42;1.10;99.90
85509;DHT22;75919;48.506;8.946;2024-01-27T10:15:28;1.20;99.90
85509;DHT22;75919;48.506;8.946;2024-01-27T10:18:07;1.00;99.90
85509;DHT22;75919;48.506;8.946;2024-01-27T10:20:33;1.20;99.90
85509;DHT22;75919;48.506;8.946;2024-01-27T10:23:09;1.30;99.90
85509;DHT22;75919;48.506;8.946;2024-01-27T10:25:40;1.30;99.90
85509;DHT22;75919;48.506;8.946;2024-01-27T10:28:09;1.30;99.90
85509;DHT22;75919;48.506;8.946;2024-01-27T10:30:36;1.50;99.90
85509;DHT22;75919;48.506;8.946;2024-01-27T10:33:02;1.50;99.90
85509;DHT22;75919;48.506;8.946;2024-01-27T10:35:28;1.60;99.90
85509;DHT22;75919;48.506;8.946;2024-01-27T10:37:55;1.40;99.90
85509;DHT22;75919;48.506;8.946;2024-01-27T10:40:21;1.60;99.90
85509;DHT22;75919;48.506;8.946;2024-01-27T10:43:02;1.30;99.90
85509;DHT22;75919;48.506;8.946;2024-01-27T10:45:36;1.50;99.90
85509;DHT22;75919;48.506;8.946;2024-01-27T10:48:03;1.70;99.90
85509;DHT22;75919;48.506;8.946;2024-01-27T10:50:29;1.70;99.90
85509;DHT22;75919;48.506;8.946;2024-01-27T10:52:57;1.90;99.90
85509;DHT22;75919;48.506;8.946;2024-01-27T10:55:24;1.80;99.90
85509;DHT22;75919;48.506;8.946;2024-01-27T10:57:52;1.60;99.90
85509;DHT22;75919;48.506;8.946;2024-01-27T11:00:19;2.00;99.90
85509;DHT22;75919;48.506;8.946;2024-01-27T11:02:46;2.10;99.90
85509;DHT22;75919;48.506;8.946;2024-01-27T11:05:17;1.90;99.90
85509;DHT22;75919;48.506;8.946;2024-01-27T11:07:43;1.60;99.90
85509;DHT22;75919;48.506;8.946;2024-01-27T11:10:10;1.60;99.90
85509;DHT22;75919;48.506;8.946;2024-01-27T11:12:36;1.70;99.90
85509;DHT22;75919;48.506;8.946;2024-01-27T11:15:02;1.80;99.90
85509;DHT22;75919;48.506;8.946;2024-01-27T11:17:28;2.00;99.90
85509;DHT22;75919;48.506;8.946;2024-01-27T11:19:56;2.00;99.90
85509;DHT22;75919;48.506;8.946;2024-01-27T11:22:26;2.10;99.90
85509;DHT22;75919;48.506;8.946;2024-01-27T11:27:36;2.20;99.90
85509;DHT22;75919;48.506;8.946;2024-01-27T11:30:03;2.40;99.90
85509;DHT22;75919;48.506;8.946;2024-01-27T11:32:30;2.60;99.90
85509;DHT22;75919;48.506;8.946;2024-01-27T11:34:56;2.70;99.90
85509;DHT22;75919;48.506;8.946;2024-01-27T11:37:22;2.50;99.90
85509;DHT22;75919;48.506;8.946;2024-01-27T11:39:51;2.90;99.90
85509;DHT22;75919;48.506;8.946;2024-01-27T11:42:19;3.10;99.90
85509;DHT22;75919;48.506;8.946;2024-01-27T11:44:45;3.00;99.90
85509;DHT22;75919;48.506;8.946;2024-01-27T11:47:17;2.80;99.90
85509;DHT22;75919;48.506;8.946;2024-01-27T11:49:52;2.80;99.90
85509;DHT22;75919;48.506;8.946;2024-01-27T11:52:23;3.20;99.90
85509;DHT22;75919;48.506;8.946;2024-01-27T11:55:00;3.20;99.90
85509;DHT22;75919;48.506;8.946;2024-01-27T11:57:26;3.00;99.90
85509;DHT22;75919;48.506;8.946;2024-01-27T11:59:54;3.20;99.90
85509;DHT22;75919;48.506;8.946;2024-01-27T12:02:20;3.40;99.90
85509;DHT22;75919;48.506;8.946;2024-01-27T12:04:47;3.40;99.90
85509;DHT22;75919;48.506;8.946;2024-01-27T12:07:14;3.70;99.90
85509;DHT22;75919;48.506;8.946;2024-01-27T12:09:39;3.80;99.90
85509;DHT22;75919;48.506;8.946;2024-01-27T12:12:05;3.90;99.90
85509;DHT22;75919;48.506;8.946;2024-01-27T12:14:42;4.00;99.90
85509;DHT22;75919;48.506;8.946;2024-01-27T12:17:10;3.90;99.90
85509;DHT22;75919;48.506;8.946;2024-01-27T12:19:37;4.10;99.90
85509;DHT22;75919;48.506;8.946;2024-01-27T12:22:03;4.50;99.90
85509;DHT22;75919;48.506;8.946;2024-01-27T12:24:29;4.40;99.90
85509;DHT22;75919;48.506;8.946;2024-01-27T12:26:57;4.20;99.90
85509;DHT22;75919;48.506;8.946;2024-01-27T12:29:23;4.20;99.90
85509;DHT22;75919;48.506;8.946;2024-01-27T12:31:49;4.20;99.90
85509;DHT22;75919;48.506;8.946;2024-01-27T12:34:15;4.10;99.90
85509;DHT22;75919;48.506;8.946;2024-01-27T12:36:43;3.60;99.90
85509;DHT22;75919;48.506;8.946;2024-01-27T12:39:09;3.30;99.90
85509;DHT22;75919;48.506;8.946;2024-01-27T12:41:35;3.50;99.90
85509;DHT22;75919;48.506;8.946;2024-01-27T12:44:03;4.00;99.90
85509;DHT22;75919;48.506;8.946;2024-01-27T12:46:29;4.20;99.90
85509;DHT22;75919;48.506;8.946;2024-01-27T12:48:55;4.50;99.90
85509;DHT22;75919;48.506;8.946;2024-01-27T12:51:20;4.90;99.90
85509;DHT22;75919;48.506;8.946;2024-01-27T12:53:46;4.50;99.90
85509;DHT22;75919;48.506;8.946;2024-01-27T12:56:14;4.30;99.90
85509;DHT22;75919;48.506;8.946;2024-01-27T12:58:41;4.20;99.90
85509;DHT22;75919;48.506;8.946;2024-01-27T13:01:08;4.40;99.90
85509;DHT22;75919;48.506;8.946;2024-01-27T13:03:34;4.50;99.90
85509;DHT22;75919;48.506;8.946;2024-01-27T13:06:00;4.40;99.90
85509;DHT22;75919;48.506;8.946;2024-01-27T13:08:26;4.20;99.90
85509;DHT22;75919;48.506;8.946;2024-01-27T13:10:52;4.30;99.90
85509;DHT22;75919;48.506;8.946;2024-01-27T13:13:18;4.40;99.90
85509;DHT22;75919;48.506;8.946;2024-01-27T13:15:44;4.50;99.90
85509;DHT22;75919;48.506;8.946;2024-01-27T13:18:10;4.40;99.90
85509;DHT22;75919;48.506;8.946;2024-01-27T13:20:37;4.50;99.90
85509;DHT22;75919;48.506;8.946;2024-01-27T13:23:02;4.50;99.90
85509;DHT22;75919;48.506;8.946;2024-01-27T13:25:28;4.40;99.90
85509;DHT22;75919;48.506;8.946;2024-01-27T13:27:54;4.50;99.90
85509;DHT22;75919;48.506;8.946;2024-01-27T13:30:21;4.60;99.90
85509;DHT22;75919;48.506;8.946;2024-01-27T13:32:47;4.60;99.90
85509;DHT22;75919;48.506;8.946;2024-01-27T13:35:12;4.60;99.90
85509;DHT22;75919;48.506;8.946;2024-01-27T13:37:38;4.80;99.90
85509;DHT22;75919;48.506;8.946;2024-01-27T13:40:05;4.80;99.90
85509;DHT22;75919;48.506;8.946;2024-01-27T13:42:33;4.60;99.90
85509;DHT22;75919;48.506;8.946;2024-01-27T13:44:58;4.80;99.90
85509;DHT22;75919;48.506;8.946;2024-01-27T13:47:24;4.90;99.90
85509;DHT22;75919;48.506;8.946;2024-01-27T13:49:51;5.00;99.90
85509;DHT22;75919;48.506;8.946;2024-01-27T13:52:17;5.10;99.90
85509;DHT22;75919;48.506;8.946;2024-01-27T13:54:42;5.00;99.90
85509;DHT22;75919;48.506;8.946;2024-01-27T13:57:09;5.10;99.90
85509;DHT22;75919;48.506;8.946;2024-01-27T13:59:36;5.10;99.90
85509;DHT22;75919;48.506;8.946;2024-01-27T14:02:02;5.20;99.90
85509;DHT22;75919;48.506;8.946;2024-01-27T14:04:28;5.20;99.90
85509;DHT22;75919;48.506;8.946;2024-01-27T14:06:54;5.20;99.90
85509;DHT22;75919;48.506;8.946;2024-01-27T14:09:23;5.20;99.90
85509;DHT22;75919;48.506;8.946;2024-01-27T14:11:49;5.10;99.90
85509;DHT22;75919;48.506;8.946;2024-01-27T14:14:15;5.00;99.90
85509;DHT22;75919;48.506;8.946;2024-01-27T14:16:43;5.00;99.90
85509;DHT22;75919;48.506;8.946;2024-01-27T14:19:10;5.00;99.90
85509;DHT22;75919;48.506;8.946;2024-01-27T14:21:36;4.80;99.90
85509;DHT22;75919;48.506;8.946;2024-01-27T14:24:03;4.80;99.90
85509;DHT22;75919;48.506;8.946;2024-01-27T14:26:31;4.80;99.90
85509;DHT22;75919;48.506;8.946;2024-01-27T14:28:57;4.80;99.90
85509;DHT22;75919;48.506;8.946;2024-01-27T14:31:23;4.70;99.90
85509;DHT22;75919;48.506;8.946;2024-01-27T14:33:49;4.70;99.90
85509;DHT22;75919;48.506;8.946;2024-01-27T14:36:15;4.70;99.90
85509;DHT22;75919;48.506;8.946;2024-01-27T14:38:41;4.70;99.90
85509;DHT22;75919;48.506;8.946;2024-01-27T14:41:08;4.70;99.90
85509;DHT22;75919;48.506;8.946;2024-01-27T14:43:33;4.70;99.90
85509;DHT22;75919;48.506;8.946;2024-01-27T14:45:59;4.70;99.90
85509;DHT22;75919;48.506;8.946;2024-01-27T14:48:25;4.90;99.90
85509;DHT22;75919;48.506;8.946;2024-01-27T14:50:51;5.00;99.90
85509;DHT22;75919;48.506;8.946;2024-01-27T14:53:26;5.00;99.90
85509;DHT22;75919;48.506;8.946;2024-01-27T14:55:53;4.90;99.90
85509;DHT22;75919;48.506;8.946;2024-01-27T14:58:19;4.90;99.90
85509;DHT22;75919;48.506;8.946;2024-01-27T15:00:44;5.00;99.90
85509;DHT22;75919;48.506;8.946;2024-01-27T15:03:20;5.00;99.90
85509;DHT22;75919;48.506;8.946;2024-01-27T15:05:46;5.10;99.90
85509;DHT22;75919;48.506;8.946;2024-01-27T15:08:12;5.00;99.90
85509;DHT22;75919;48.506;8.946;2024-01-27T15:10:38;4.90;99.90
85509;DHT22;75919;48.506;8.946;2024-01-27T15:13:08;4.80;99.90
85509;DHT22;75919;48.506;8.946;2024-01-27T15:15:33;4.90;99.90
85509;DHT22;75919;48.506;8.946;2024-01-27T15:17:59;4.90;99.90
85509;DHT22;75919;48.506;8.946;2024-01-27T15:20:27;4.90;99.90
85509;DHT22;75919;48.506;8.946;2024-01-27T15:22:58;4.80;99.90
85509;DHT22;75919;48.506;8.946;2024-01-27T15:25:24;4.60;99.90
85509;DHT22;75919;48.506;8.946;2024-01-27T15:27:50;4.50;99.90
85509;DHT22;75919;48.506;8.946;2024-01-27T15:30:17;4.50;99.90
85509;DHT22;75919;48.506;8.946;2024-01-27T15:32:48;4.50;99.90
85509;DHT22;75919;48.506;8.946;2024-01-27T15:35:14;4.50;99.90
85509;DHT22;75919;48.506;8.946;2024-01-27T15:37:40;4.50;99.90
85509;DHT22;75919;48.506;8.946;2024-01-27T15:40:07;4.50;99.90
85509;DHT22;75919;48.506;8.946;2024-01-27T15:42:33;4.40;99.90
85509;DHT22;75919;48.506;8.946;2024-01-27T15:44:58;4.30;99.90
85509;DHT22;75919;48.506;8.946;2024-01-27T15:47:24;4.20;99.90
85509;DHT22;75919;48.506;8.946;2024-01-27T15:49:53;4.10;99.90
85509;DHT22;75919;48.506;8.946;2024-01-27T15:52:23;4.10;99.90
85509;DHT22;75919;48.506;8.946;2024-01-27T15:54:48;4.10;99.90
85509;DHT22;75919;48.506;8.946;2024-01-27T15:57:14;4.00;99.90
85509;DHT22;75919;48.506;8.946;2024-01-27T15:59:40;4.00;99.90
85509;DHT22;75919;48.506;8.946;2024-01-27T16:02:06;4.00;99.90
85509;DHT22;75919;48.506;8.946;2024-01-27T16:04:32;3.90;99.90
85509;DHT22;75919;48.506;8.946;2024-01-27T16:06:58;3.80;99.90
85509;DHT22;75919;48.506;8.946;2024-01-27T16:09:24;3.70;99.90
85509;DHT22;75919;48.506;8.946;2024-01-27T16:11:49;3.60;99.90
85509;DHT22;75919;48.506;8.946;2024-01-27T16:14:15;3.50;99.90
85509;DHT22;75919;48.506;8.946;2024-01-27T16:16:41;3.40;99.90
85509;DHT22;75919;48.506;8.946;2024-01-27T16:19:07;3.40;99.90
85509;DHT22;75919;48.506;8.946;2024-01-27T16:21:33;3.30;99.90
85509;DHT22;75919;48.506;8.946;2024-01-27T16:23:58;3.10;99.90
85509;DHT22;75919;48.506;8.946;2024-01-27T16:26:24;3.10;99.90
85509;DHT22;75919;48.506;8.946;2024-01-27T16:28:52;3.00;99.90
85509;DHT22;75919;48.506;8.946;2024-01-27T16:31:18;2.90;99.90
85509;DHT22;75919;48.506;8.946;2024-01-27T16:33:44;2.80;99.90
85509;DHT22;75919;48.506;8.946;2024-01-27T16:36:09;2.70;99.90
85509;DHT22;75919;48.506;8.946;2024-01-27T16:38:35;2.70;99.90
85509;DHT22;75919;48.506;8.946;2024-01-27T16:41:01;2.70;99.90
85509;DHT22;75919;48.506;8.946;2024-01-27T16:43:26;2.70;99.90
85509;DHT22;75919;48.506;8.946;2024-01-27T16:45:53;2.70;99.90
85509;DHT22;75919;48.506;8.946;2024-01-27T16:48:20;2.60;99.90
85509;DHT22;75919;48.506;8.946;2024-01-27T16:50:46;2.50;99.90
85509;DHT22;75919;48.506;8.946;2024-01-27T16:53:12;2.40;99.90
85509;DHT22;75919;48.506;8.946;2024-01-27T16:55:37;2.40;99.90
85509;DHT22;75919;48.506;8.946;2024-01-27T16:58:05;2.30;99.90
85509;DHT22;75919;48.506;8.946;2024-01-27T17:00:30;2.30;99.90
85509;DHT22;75919;48.506;8.946;2024-01-27T17:02:56;2.20;99.90
85509;DHT22;75919;48.506;8.946;2024-01-27T17:05:22;2.40;99.90
85509;DHT22;75919;48.506;8.946;2024-01-27T17:07:48;2.40;99.90
85509;DHT22;75919;48.506;8.946;2024-01-27T17:10:13;2.30;99.90
85509;DHT22;75919;48.506;8.946;2024-01-27T17:12:39;2.30;99.90
85509;DHT22;75919;48.506;8.946;2024-01-27T17:15:05;2.30;99.90
85509;DHT22;75919;48.506;8.946;2024-01-27T17:17:32;2.10;99.90
85509;DHT22;75919;48.506;8.946;2024-01-27T17:19:58;2.10;99.90
85509;DHT22;75919;48.506;8.946;2024-01-27T17:22:23;1.90;99.90
85509;DHT22;75919;48.506;8.946;2024-01-27T17:24:49;1.80;99.90
85509;DHT22;75919;48.506;8.946;2024-01-27T17:27:15;1.70;99.90
85509;DHT22;75919;48.506;8.946;2024-01-27T17:29:41;1.70;99.90
85509;DHT22;75919;48.506;8.946;2024-01-27T17:32:06;1.60;99.90
85509;DHT22;75919;48.506;8.946;2024-01-27T17:34:33;1.60;99.90
85509;DHT22;75919;48.506;8.946;2024-01-27T17:36:59;1.50;99.90
85509;DHT22;75919;48.506;8.946;2024-01-27T17:39:24;1.60;99.90
85509;DHT22;75919;48.506;8.946;2024-01-27T17:41:50;1.50;99.90
85509;DHT22;75919;48.506;8.946;2024-01-27T17:44:15;1.60;99.90
85509;DHT22;75919;48.506;8.946;2024-01-27T17:46:41;1.60;99.90
85509;DHT22;75919;48.506;8.946;2024-01-27T17:49:07;1.60;99.90
85509;DHT22;75919;48.506;8.946;2024-01-27T17:51:33;1.60;99.90
85509;DHT22;75919;48.506;8.946;2024-01-27T17:54:03;1.70;99.90
85509;DHT22;75919;48.506;8.946;2024-01-27T17:56:29;1.60;99.90
85509;DHT22;75919;48.506;8.946;2024-01-27T17:58:55;1.60;99.90
85509;DHT22;75919;48.506;8.946;2024-01-27T18:01:21;1.60;99.90
85509;DHT22;75919;48.506;8.946;2024-01-27T18:03:47;1.50;99.90
85509;DHT22;75919;48.506;8.946;2024-01-27T18:06:13;1.50;99.90
85509;DHT22;75919;48.506;8.946;2024-01-27T18:08:39;1.40;99.90
85509;DHT22;75919;48.506;8.946;2024-01-27T18:11:04;1.40;99.90
85509;DHT22;75919;48.506;8.946;2024-01-27T18:13:30;1.50;99.90
85509;DHT22;75919;48.506;8.946;2024-01-27T18:15:56;1.30;99.90
85509;DHT22;75919;48.506;8.946;2024-01-27T18:18:22;1.50;99.90
85509;DHT22;75919;48.506;8.946;2024-01-27T18:20:47;1.40;99.90
85509;DHT22;75919;48.506;8.946;2024-01-27T18:23:13;1.40;99.90
85509;DHT22;75919;48.506;8.946;2024-01-27T18:25:39;1.30;99.90
85509;DHT22;75919;48.506;8.946;2024-01-27T18:28:05;1.30;99.90
85509;DHT22;75919;48.506;8.946;2024-01-27T18:30:30;1.30;99.90
85509;DHT22;75919;48.506;8.946;2024-01-27T18:32:56;1.30;99.90
85509;DHT22;75919;48.506;8.946;2024-01-27T18:35:22;1.30;99.90
85509;DHT22;75919;48.506;8.946;2024-01-27T18:37:48;1.20;99.90
85509;DHT22;75919;48.506;8.946;2024-01-27T18:40:14;1.20;99.90
85509;DHT22;75919;48.506;8.946;2024-01-27T18:42:39;1.20;99.90
85509;DHT22;75919;48.506;8.946;2024-01-27T18:45:06;1.20;99.90
85509;DHT22;75919;48.506;8.946;2024-01-27T18:47:32;1.10;99.90
85509;DHT22;75919;48.506;8.946;2024-01-27T18:49:59;1.10;99.90
85509;DHT22;75919;48.506;8.946;2024-01-27T18:52:25;1.10;99.90
85509;DHT22;75919;48.506;8.946;2024-01-27T18:54:51;1.10;99.90
85509;DHT22;75919;48.506;8.946;2024-01-27T18:57:17;1.10;99.90
85509;DHT22;75919;48.506;8.946;2024-01-27T18:59:43;1.00;99.90
85509;DHT22;75919;48.506;8.946;2024-01-27T19:02:09;0.90;99.90
85509;DHT22;75919;48.506;8.946;2024-01-27T19:04:36;0.80;99.90
85509;DHT22;75919;48.506;8.946;2024-01-27T19:07:01;0.70;99.90
85509;DHT22;75919;48.506;8.946;2024-01-27T19:09:27;0.60;99.90
85509;DHT22;75919;48.506;8.946;2024-01-27T19:11:53;0.50;99.90
85509;DHT22;75919;48.506;8.946;2024-01-27T19:14:19;0.50;99.90
85509;DHT22;75919;48.506;8.946;2024-01-27T19:16:46;0.40;99.90
85509;DHT22;75919;48.506;8.946;2024-01-27T19:19:12;0.50;99.90
85509;DHT22;75919;48.506;8.946;2024-01-27T19:21:40;0.50;99.90
85509;DHT22;75919;48.506;8.946;2024-01-27T19:24:06;0.60;99.90
85509;DHT22;75919;48.506;8.946;2024-01-27T19:26:31;0.50;99.90
85509;DHT22;75919;48.506;8.946;2024-01-27T19:28:57;0.50;99.90
85509;DHT22;75919;48.506;8.946;2024-01-27T19:31:22;0.40;99.90
85509;DHT22;75919;48.506;8.946;2024-01-27T19:33:48;0.40;99.90
85509;DHT22;75919;48.506;8.946;2024-01-27T19:36:14;0.40;99.90
85509;DHT22;75919;48.506;8.946;2024-01-27T19:38:39;0.50;99.90
85509;DHT22;75919;48.506;8.946;2024-01-27T19:41:09;0.30;99.90
85509;DHT22;75919;48.506;8.946;2024-01-27T19:43:35;0.30;99.90
85509;DHT22;75919;48.506;8.946;2024-01-27T19:46:01;0.50;99.90
85509;DHT22;75919;48.506;8.946;2024-01-27T19:48:26;0.50;99.90
85509;DHT22;75919;48.506;8.946;2024-01-27T19:50:52;0.20;99.90
85509;DHT22;75919;48.506;8.946;2024-01-27T19:53:17;0.10;99.90
85509;DHT22;75919;48.506;8.946;2024-01-27T19:55:43;0.10;99.90
85509;DHT22;75919;48.506;8.946;2024-01-27T19:58:09;0.00;99.90
85509;DHT22;75919;48.506;8.946;2024-01-27T20:00:35;0.10;99.90
85509;DHT22;75919;48.506;8.946;2024-01-27T20:03:00;0.00;99.90
85509;DHT22;75919;48.506;8.946;2024-01-27T20:05:27;0.10;99.90
85509;DHT22;75919;48.506;8.946;2024-01-27T20:07:53;-0.20;99.90
85509;DHT22;75919;48.506;8.946;2024-01-27T20:10:18;-0.10;99.90
85509;DHT22;75919;48.506;8.946;2024-01-27T20:12:44;-0.10;99.90
85509;DHT22;75919;48.506;8.946;2024-01-27T20:15:11;-0.10;99.90
85509;DHT22;75919;48.506;8.946;2024-01-27T20:17:37;-0.10;99.90
85509;DHT22;75919;48.506;8.946;2024-01-27T20:20:04;-0.10;99.90
85509;DHT22;75919;48.506;8.946;2024-01-27T20:22:31;0.00;99.90
85509;DHT22;75919;48.506;8.946;2024-01-27T20:24:56;-0.10;99.90
85509;DHT22;75919;48.506;8.946;2024-01-27T20:27:23;0.20;99.90
85509;DHT22;75919;48.506;8.946;2024-01-27T20:29:48;0.00;99.90
85509;DHT22;75919;48.506;8.946;2024-01-27T20:32:14;0.00;99.90
85509;DHT22;75919;48.506;8.946;2024-01-27T20:34:41;0.40;99.90
85509;DHT22;75919;48.506;8.946;2024-01-27T20:37:06;-0.20;99.90
85509;DHT22;75919;48.506;8.946;2024-01-27T20:39:35;-0.30;99.90
85509;DHT22;75919;48.506;8.946;2024-01-27T20:42:03;0.00;99.90
85509;DHT22;75919;48.506;8.946;2024-01-27T20:44:29;-0.40;99.90
85509;DHT22;75919;48.506;8.946;2024-01-27T20:46:55;-0.30;99.90
85509;DHT22;75919;48.506;8.946;2024-01-27T20:49:22;-0.30;99.90
85509;DHT22;75919;48.506;8.946;2024-01-27T20:51:48;-0.30;99.90
85509;DHT22;75919;48.506;8.946;2024-01-27T20:54:16;-0.40;99.90
85509;DHT22;75919;48.506;8.946;2024-01-27T20:56:42;0.00;99.90
85509;DHT22;75919;48.506;8.946;2024-01-27T20:59:09;0.10;99.90
